Airfield :
LOGIN :

Register | Disclaimer

   EN    FR    IT 

 










Legend :    VFR   Marginal VFR   IFR   Intensive IFR   Very Intensive IFR
Visi :
Ceiling :
>= 8 km
>= 3000ft
5 to 8 km
1000 to 3000 ft
1500m to 5 km
500 to 1000 ft
800 to 1500m
200 to 500 ft
< 800m
< 200 ft
Symbols :   Thunderstorms  Fog  Heavy snow  Heavy precipitations  Wind > 20 kt
SIGMETs :     Misc.  Thunderstorms  Icing  Turbulence  Mountain Waves  Volcanic Ashes






- Airport Elevation : 14 ft
- IATA code : BRE


EDDW - Bremen Neuenland

CURRENT METAR :
  • 071420Z 02006KT 350V060 CAVOK 18/04 Q1032 NOSIG

EXPIRED METARs :
  • 071350Z VRB03KT CAVOK 18/03 Q1032 NOSIG
  • 071320Z 34006KT 290V080 CAVOK 17/03 Q1032 NOSIG
  • 071250Z 05005KT 340V080 9999 FEW048 17/05 Q1032 NOSIG
  • 071220Z VRB03KT 9999 FEW044 17/06 Q1032 NOSIG
  • 071150Z VRB04KT 9999 FEW044 17/05 Q1033 NOSIG
  • 071120Z VRB03KT 9999 FEW044 17/06 Q1033 NOSIG

TAF TAF EDDW
Valid from the 07 at 12:00 until the 08 at 12:00 UTC


071108Z 0712/0812 34005KT CAVOK
BECMG 0713/0715 04006KT
BECMG 0719/0721 10006KT
BECMG 0806/0808 16006KT



MET'MAP, your aeronautical weather chart ! - Copyright ORBIFLY December 2007 - Disclaimer

ORBIFLY MET'MAP TEAM :

Programming & Development : Alexandra Zaïnal
Concept & original design : Baudouin d'Aumeries
Assistance for programming : Marc-Olivier Méhu
Technical & hardware support : Manuel Goepfert

Contact : metmap@orbifly.com




SOURCES & CREDITS :

   NOAA